createdAt,value
2018-02-22T00:00:26.609Z,41.07
2018-02-22T00:05:29.391Z,35.50
2018-02-22T00:10:32.033Z,34.13
2018-02-22T00:15:36.004Z,33.47
2018-02-22T00:20:38.689Z,33.57
2018-02-22T00:25:42.393Z,36.30
2018-02-22T00:30:46.008Z,39.83
2018-02-22T00:35:50.145Z,36.77
2018-02-22T00:40:53.553Z,42.80
2018-02-22T00:45:57.160Z,45.20
2018-02-22T00:50:59.778Z,42.80
2018-02-22T00:56:03.380Z,40.73
2018-02-22T01:01:06.270Z,47.70
2018-02-22T01:06:09.418Z,48.60
2018-02-22T01:11:12.856Z,49.17
2018-02-22T01:16:16.363Z,45.63
2018-02-22T01:21:19.836Z,48.03
2018-02-22T01:26:23.103Z,45.53
2018-02-22T01:31:25.950Z,49.23
2018-02-22T01:36:28.869Z,53.43
2018-02-22T01:41:31.572Z,51.07
2018-02-22T01:46:35.154Z,51.13
2018-02-22T01:51:37.934Z,51.80
2018-02-22T01:56:41.151Z,51.40
2018-02-22T02:01:43.828Z,51.50
2018-02-22T02:06:47.382Z,50.50
2018-02-22T02:11:50.187Z,52.73
2018-02-22T02:16:54.070Z,52.67
2018-02-22T02:21:56.911Z,44.87
2018-02-22T02:27:00.195Z,46.30
2018-02-22T02:32:03.783Z,49.63
2018-02-22T02:37:06.633Z,46.97
2018-02-22T02:42:10.052Z,49.03
2018-02-22T02:47:14.405Z,53.30
2018-02-22T02:52:16.998Z,49.43
2018-02-22T02:57:19.975Z,54.60
2018-02-22T03:02:22.592Z,48.40
2018-02-22T03:07:26.851Z,52.93
2018-02-22T03:12:29.478Z,47.07
2018-02-22T03:17:33.092Z,43.47
2018-02-22T03:22:35.696Z,44.20
2018-02-22T03:27:39.067Z,46.83
2018-02-22T03:32:42.453Z,50.23
2018-02-22T03:37:45.303Z,56.53
2018-02-22T03:42:47.948Z,47.80
2018-02-22T03:47:50.846Z,47.80
2018-02-22T03:52:53.453Z,48.90
2018-02-22T03:57:56.431Z,46.53
2018-02-22T04:02:59.094Z,51.40
2018-02-22T04:08:02.504Z,45.57
2018-02-22T04:13:05.941Z,52.23
2018-02-22T04:18:09.133Z,49.67
2018-02-22T04:23:12.491Z,50.10
2018-02-22T04:28:15.196Z,54.57
2018-02-22T04:33:17.785Z,52.80
2018-02-22T04:38:20.844Z,53.60
2018-02-22T04:43:23.434Z,49.23
2018-02-22T04:48:27.077Z,48.33
2018-02-22T04:53:30.474Z,58.50
2018-02-22T04:58:33.847Z,54.70
2018-02-22T05:03:36.478Z,53.30
2018-02-22T05:08:39.658Z,48.83
2018-02-22T05:13:42.261Z,53.63
2018-02-22T05:18:45.018Z,52.87
2018-02-22T05:23:48.379Z,49.33
2018-02-22T05:28:51.454Z,54.40
2018-02-22T05:33:54.859Z,56.50
2018-02-22T05:38:58.868Z,62.37
2018-02-22T05:44:01.518Z,57.60
2018-02-22T05:49:04.451Z,64.30
2018-02-22T05:54:07.087Z,61.20
2018-02-22T05:59:10.451Z,57.23
2018-02-22T06:04:13.127Z,56.00
2018-02-22T06:09:16.303Z,63.87
2018-02-22T06:14:18.935Z,65.17
2018-02-22T06:19:22.154Z,60.78
2018-02-22T06:24:24.794Z,60.63
2018-02-22T06:29:27.475Z,69.80
2018-02-22T06:34:30.110Z,61.03
2018-02-22T06:39:33.470Z,66.37
2018-02-22T06:44:36.080Z,66.57
2018-02-22T06:49:39.549Z,70.43
2018-02-22T06:54:42.183Z,61.70
2018-02-22T06:59:44.981Z,70.43
2018-02-22T07:04:47.613Z,66.97
2018-02-22T07:09:50.899Z,73.47
2018-02-22T07:14:53.828Z,71.93
2018-02-22T07:19:56.966Z,62.93
2018-02-22T07:24:59.564Z,72.37
2018-02-22T07:30:02.528Z,73.30
2018-02-22T07:35:05.185Z,65.97
2018-02-22T07:40:09.239Z,67.23
2018-02-22T07:45:12.647Z,67.10
2018-02-22T07:50:16.871Z,59.03
2018-02-22T07:55:19.495Z,56.60
2018-02-22T08:00:22.738Z,56.63
2018-02-22T08:05:25.362Z,55.30
2018-02-22T08:10:28.306Z,61.67
2018-02-22T08:15:31.727Z,58.60
2018-02-22T08:20:34.351Z,58.53
2018-02-22T08:25:36.983Z,47.43
2018-02-22T08:30:40.429Z,44.53
2018-02-22T08:35:43.849Z,49.43
2018-02-22T08:40:47.287Z,46.97
2018-02-22T08:45:49.884Z,49.23
2018-02-22T08:50:52.892Z,42.77
2018-02-22T08:55:55.524Z,52.67
2018-02-22T09:00:59.001Z,41.47
2018-02-22T09:06:01.709Z,45.17
2018-02-22T09:11:04.479Z,30.00
2018-02-22T09:16:07.076Z,36.93
2018-02-22T09:21:10.453Z,25.43
2018-02-22T09:26:13.076Z,29.20
2018-02-22T09:31:15.944Z,27.57
2018-02-22T09:36:18.575Z,24.17
2018-02-22T09:41:21.755Z,28.60
2018-02-22T09:46:24.430Z,26.10
2018-02-22T09:51:27.250Z,29.50
2018-02-22T09:56:29.876Z,28.80
2018-02-22T10:01:32.630Z,25.50
2018-02-22T10:06:36.027Z,24.57
2018-02-22T10:11:39.359Z,24.80
2018-02-22T10:16:42.739Z,23.00
2018-02-22T10:21:45.690Z,18.73
2018-02-22T10:26:48.312Z,19.40
2018-02-22T10:31:51.475Z,18.30
2018-02-22T10:36:54.068Z,21.80
2018-02-22T10:41:57.209Z,18.97
2018-02-22T10:46:59.905Z,19.73
2018-02-22T10:52:03.714Z,17.60
2018-02-22T10:57:07.094Z,20.13
2018-02-22T11:02:15.987Z,16.90
2018-02-22T11:07:18.560Z,20.67
2018-02-22T11:12:22.504Z,12.83
2018-02-22T11:17:25.859Z,11.70
2018-02-22T11:22:29.011Z,10.63
2018-02-22T11:27:31.621Z,10.37
2018-02-22T11:32:35.086Z,12.40
2018-02-22T11:37:37.666Z,12.67
2018-02-22T11:42:40.826Z,11.53
2018-02-22T11:47:43.412Z,11.77
2018-02-22T11:52:46.214Z,11.60
2018-02-22T11:57:48.846Z,15.30
2018-02-22T12:02:51.820Z,16.17
2018-02-22T12:07:54.415Z,17.73
2018-02-22T12:12:57.284Z,14.90
2018-02-22T12:17:59.920Z,17.27
2018-02-22T12:23:03.474Z,13.83
2018-02-22T12:28:06.595Z,14.13
2018-02-22T12:33:10.127Z,15.03
2018-02-22T12:38:13.492Z,14.67
2018-02-22T12:43:16.172Z,13.87
2018-02-22T12:48:18.847Z,13.67
2018-02-22T12:53:21.694Z,13.80
2018-02-22T12:58:24.333Z,12.37
2018-02-22T13:03:28.592Z,12.13
2018-02-22T13:08:31.259Z,14.30
2018-02-22T13:13:35.327Z,11.20
2018-02-22T13:18:37.959Z,11.33
2018-02-22T13:23:42.033Z,12.07
2018-02-22T13:28:45.377Z,9.20
2018-02-22T13:34:00.647Z,9.90
2018-02-22T13:39:10.652Z,6.03
2018-02-22T13:44:26.128Z,8.10
2018-02-22T13:55:03.657Z,9.83
2018-02-22T14:00:06.707Z,11.73
2018-02-22T14:05:09.322Z,9.50
2018-02-22T14:10:12.841Z,9.53
2018-02-22T14:15:15.464Z,9.23
2018-02-22T14:20:18.834Z,9.43
2018-02-22T14:25:21.470Z,10.30
2018-02-22T14:30:24.408Z,7.63
2018-02-22T14:35:27.178Z,10.40
2018-02-22T14:40:30.849Z,11.40
2018-02-22T14:45:34.262Z,13.67
2018-02-22T14:50:38.036Z,9.33
2018-02-22T14:55:40.804Z,10.47
2018-02-22T15:00:50.238Z,11.43
2018-02-22T15:05:53.937Z,12.73
2018-02-22T15:10:57.199Z,11.73
2018-02-22T15:16:00.152Z,10.53
2018-02-22T15:21:03.624Z,9.60
2018-02-22T15:26:06.427Z,14.67
2018-02-22T15:31:16.714Z,8.97
2018-02-22T15:36:19.464Z,10.07
2018-02-22T15:41:24.376Z,9.17
2018-02-22T15:46:27.095Z,12.73
2018-02-22T15:51:30.661Z,10.73
2018-02-22T15:56:34.068Z,11.23
2018-02-22T16:01:37.714Z,9.37
2018-02-22T16:06:40.358Z,9.87
2018-02-22T16:11:43.184Z,10.50
2018-02-22T16:16:46.734Z,7.73
2018-02-22T16:21:50.529Z,8.03
2018-02-22T16:26:53.280Z,10.83
2018-02-22T16:31:56.327Z,9.13
2018-02-22T16:36:59.124Z,10.97
2018-02-22T16:42:02.512Z,10.77
2018-02-22T16:47:05.164Z,10.97
2018-02-22T16:52:09.514Z,10.33
2018-02-22T16:57:13.148Z,12.73
2018-02-22T17:02:18.207Z,18.30
2018-02-22T17:07:20.876Z,21.77
2018-02-22T17:12:25.265Z,19.83
2018-02-22T17:17:40.426Z,20.13
2018-02-22T17:22:43.625Z,19.77
2018-02-22T17:27:52.134Z,20.47
2018-02-22T17:32:56.740Z,23.67
2018-02-22T17:38:05.278Z,23.33
2018-02-22T17:43:08.076Z,24.33
2018-02-22T17:48:10.814Z,24.47
2018-02-22T17:53:14.640Z,22.03
2018-02-22T17:58:17.612Z,23.50
2018-02-22T18:03:20.340Z,23.33
2018-02-22T18:08:23.067Z,21.13
2018-02-22T18:13:26.585Z,21.37
2018-02-22T18:18:29.341Z,22.53
2018-02-22T18:23:32.342Z,21.60
2018-02-22T18:28:34.997Z,19.17
2018-02-22T18:33:38.221Z,21.00
2018-02-22T18:38:47.619Z,21.40
2018-02-22T18:43:56.063Z,21.77
2018-02-22T18:48:58.906Z,22.00
2018-02-22T18:54:02.712Z,22.57
2018-02-22T18:59:05.351Z,16.80
2018-02-22T19:04:08.414Z,17.87
2018-02-22T19:09:11.437Z,19.90
2018-02-22T19:14:14.808Z,18.33
2018-02-22T19:19:17.966Z,21.63
2018-02-22T19:24:20.904Z,20.80
2018-02-22T19:29:23.936Z,17.43
2018-02-22T19:34:26.996Z,21.10
2018-02-22T19:39:29.743Z,22.97
2018-02-22T19:44:32.544Z,21.77
2018-02-22T19:49:35.186Z,19.90
2018-02-22T19:54:38.966Z,19.77
2018-02-22T19:59:42.595Z,22.73
2018-02-22T20:04:45.853Z,23.23
2018-02-22T20:09:48.719Z,21.20
2018-02-22T20:14:52.225Z,23.03
2018-02-22T20:19:54.974Z,24.37
2018-02-22T20:24:58.018Z,24.27
2018-02-22T20:30:01.557Z,24.00
2018-02-22T20:35:04.826Z,24.27
2018-02-22T20:40:07.619Z,26.57
2018-02-22T20:45:11.093Z,23.73
2018-02-22T20:50:13.872Z,22.97
2018-02-22T20:55:18.847Z,26.23
2018-02-22T21:00:22.269Z,31.03
2018-02-22T21:05:25.501Z,29.07
2018-02-22T21:10:28.162Z,29.60
2018-02-22T21:15:32.492Z,28.57
2018-02-22T21:20:35.244Z,27.37
2018-02-22T21:25:38.840Z,24.77
2018-02-22T21:30:41.573Z,27.53
2018-02-22T21:35:45.060Z,29.60
2018-02-22T21:40:47.803Z,28.70
2018-02-22T21:45:50.971Z,32.33
2018-02-22T21:50:53.729Z,31.03
2018-02-22T21:55:56.490Z,30.50
2018-02-22T22:00:59.138Z,26.97
2018-02-22T22:06:02.289Z,31.20
2018-02-22T22:11:05.006Z,31.17
2018-02-22T22:16:07.990Z,29.47
2018-02-22T22:21:11.458Z,30.17
2018-02-22T22:26:15.057Z,35.73
2018-02-22T22:31:17.946Z,31.70
2018-02-22T22:36:21.249Z,30.03
2018-02-22T22:41:24.663Z,34.50
2018-02-22T22:46:28.304Z,33.30
2018-02-22T22:51:30.969Z,31.33
2018-02-22T22:56:34.615Z,33.70
2018-02-22T23:01:37.368Z,38.17
2018-02-22T23:06:40.713Z,32.20
2018-02-22T23:11:43.497Z,30.87
2018-02-22T23:16:46.669Z,33.63
2018-02-22T23:21:49.360Z,36.93
2018-02-22T23:26:52.897Z,37.33
2018-02-22T23:31:55.554Z,40.30
2018-02-22T23:36:59.184Z,38.43
2018-02-22T23:42:07.552Z,42.87
2018-02-22T23:47:10.436Z,44.83
2018-02-22T23:52:13.292Z,42.90
2018-02-22T23:57:16.244Z,49.00
